createdAt,value
2019-01-17T00:02:16.582Z,6.40
2019-01-17T00:05:03.933Z,6.67
2019-01-17T00:07:46.825Z,6.97
2019-01-17T00:10:24.748Z,6.10
2019-01-17T00:13:05.803Z,6.57
2019-01-17T00:15:38.300Z,6.40
2019-01-17T00:18:20.375Z,6.00
2019-01-17T00:20:53.080Z,7.50
2019-01-17T00:23:33.481Z,6.40
2019-01-17T00:26:14.008Z,7.70
2019-01-17T00:28:56.743Z,7.73
2019-01-17T00:31:37.797Z,7.07
2019-01-17T00:34:16.792Z,6.60
2019-01-17T00:36:55.640Z,6.13
2019-01-17T00:39:46.852Z,6.67
2019-01-17T00:42:26.064Z,6.30
2019-01-17T00:44:58.552Z,6.50
2019-01-17T00:47:31.170Z,6.70
2019-01-17T00:50:17.648Z,6.83
2019-01-17T00:53:04.960Z,6.60
2019-01-17T00:55:42.765Z,6.37
2019-01-17T00:58:30.115Z,7.00
2019-01-17T01:01:05.336Z,6.00
2019-01-17T01:03:45.667Z,6.50
2019-01-17T01:06:21.751Z,6.60
2019-01-17T01:08:58.816Z,6.53
2019-01-17T01:11:34.373Z,6.50
2019-01-17T01:14:20.734Z,5.80
2019-01-17T01:17:06.820Z,6.40
2019-01-17T01:19:45.080Z,6.17
2019-01-17T01:22:25.232Z,6.92
2019-01-17T01:24:57.760Z,5.97
2019-01-17T01:27:30.454Z,5.53
2019-01-17T01:30:14.247Z,6.30
2019-01-17T01:32:48.543Z,5.77
2019-01-17T01:35:32.720Z,5.63
2019-01-17T01:38:20.127Z,5.03
2019-01-17T01:41:08.311Z,5.70
2019-01-17T01:43:47.568Z,5.17
2019-01-17T01:46:20.157Z,5.63
2019-01-17T01:48:52.524Z,4.83
2019-01-17T01:51:29.479Z,5.47
2019-01-17T01:53:56.219Z,4.90
2019-01-17T01:56:22.984Z,5.20
2019-01-17T01:58:49.792Z,4.53
2019-01-17T02:01:16.552Z,4.13
2019-01-17T02:03:43.302Z,4.93
2019-01-17T02:06:10.056Z,4.70
2019-01-17T02:08:36.809Z,4.40
2019-01-17T02:11:03.575Z,4.43
2019-01-17T02:13:30.315Z,4.40
2019-01-17T02:15:57.112Z,4.13
2019-01-17T02:18:23.897Z,4.40
2019-01-17T02:20:50.738Z,3.90
2019-01-17T02:23:17.499Z,4.07
2019-01-17T02:25:44.268Z,3.47
2019-01-17T02:28:11.024Z,3.70
2019-01-17T02:30:37.773Z,3.60
2019-01-17T02:33:04.532Z,2.67
2019-01-17T02:35:31.293Z,3.90
2019-01-17T02:37:58.049Z,2.97
2019-01-17T02:40:24.789Z,3.27
2019-01-17T02:42:51.540Z,2.90
2019-01-17T02:45:18.288Z,2.70
2019-01-17T02:47:45.080Z,2.97
2019-01-17T02:50:11.968Z,3.43
2019-01-17T02:52:38.741Z,3.07
2019-01-17T02:55:05.636Z,3.47
2019-01-17T02:57:32.400Z,3.17
2019-01-17T02:59:59.141Z,3.40
2019-01-17T03:02:25.941Z,2.80
2019-01-17T03:04:52.683Z,3.47
2019-01-17T03:07:19.449Z,2.77
2019-01-17T03:09:46.190Z,3.07
2019-01-17T03:12:12.955Z,2.77
2019-01-17T03:14:39.695Z,2.70
2019-01-17T03:17:06.478Z,3.30
2019-01-17T03:19:33.241Z,2.70
2019-01-17T03:21:59.993Z,2.50
2019-01-17T03:24:26.744Z,2.50
2019-01-17T03:26:53.491Z,2.87
2019-01-17T03:29:20.250Z,2.60
2019-01-17T03:31:47.006Z,2.60
2019-01-17T03:34:13.776Z,2.83
2019-01-17T03:36:40.521Z,3.10
2019-01-17T03:39:07.528Z,2.50
2019-01-17T03:41:34.272Z,2.50
2019-01-17T03:44:01.052Z,2.30
2019-01-17T03:46:27.780Z,2.37
2019-01-17T03:48:54.564Z,2.07
2019-01-17T03:51:21.341Z,2.10
2019-01-17T03:53:48.092Z,2.47
2019-01-17T03:56:21.416Z,2.43
2019-01-17T03:58:41.637Z,1.90
2019-01-17T04:01:08.356Z,2.50
2019-01-17T04:03:35.124Z,2.30
2019-01-17T04:06:01.983Z,2.37
2019-01-17T04:08:28.757Z,2.10
2019-01-17T04:10:55.504Z,2.50
2019-01-17T04:13:22.263Z,2.55
2019-01-17T04:15:49.008Z,2.30
2019-01-17T04:18:15.921Z,1.93
2019-01-17T04:20:42.736Z,2.03
2019-01-17T04:23:09.512Z,1.90
2019-01-17T04:25:36.280Z,3.83
2019-01-17T04:28:03.032Z,6.00
2019-01-17T04:30:29.764Z,2.47
2019-01-17T04:32:56.536Z,2.50
2019-01-17T04:35:23.287Z,2.53
2019-01-17T04:37:50.040Z,2.50
2019-01-17T04:40:16.801Z,2.40
2019-01-17T04:42:43.552Z,2.33
2019-01-17T04:45:11.133Z,2.45
2019-01-17T04:47:37.870Z,2.53
2019-01-17T04:50:05.962Z,2.00
2019-01-17T04:52:32.703Z,2.20
2019-01-17T04:55:05.037Z,2.20
2019-01-17T04:57:26.197Z,2.20
2019-01-17T04:59:52.956Z,2.33
2019-01-17T05:02:19.701Z,2.20
2019-01-17T05:04:46.469Z,2.30
2019-01-17T05:07:13.221Z,3.00
2019-01-17T05:09:39.980Z,2.93
2019-01-17T05:12:06.788Z,2.83
2019-01-17T05:14:33.588Z,2.60
2019-01-17T05:17:00.381Z,2.97
2019-01-17T05:19:27.168Z,3.20
2019-01-17T05:21:54.066Z,2.73
2019-01-17T05:24:20.835Z,2.60
2019-01-17T05:26:47.581Z,2.77
2019-01-17T05:29:14.351Z,2.43
2019-01-17T05:31:41.089Z,4.40
2019-01-17T05:34:07.840Z,4.23
2019-01-17T05:36:34.599Z,4.53
2019-01-17T05:39:01.374Z,4.27
2019-01-17T05:41:28.124Z,3.80
2019-01-17T05:43:54.920Z,3.87
2019-01-17T05:46:21.665Z,2.90
2019-01-17T05:48:48.472Z,2.27
2019-01-17T05:51:15.306Z,3.30
2019-01-17T05:53:42.132Z,2.50
2019-01-17T05:56:08.909Z,2.40
2019-01-17T05:58:35.739Z,2.90
2019-01-17T06:01:02.604Z,2.92
2019-01-17T06:03:29.412Z,3.10
2019-01-17T06:05:56.161Z,3.10
2019-01-17T06:08:22.900Z,3.73
2019-01-17T06:10:49.653Z,3.70
2019-01-17T06:13:16.397Z,3.53
2019-01-17T06:15:43.512Z,3.83
2019-01-17T06:18:09.920Z,3.53
2019-01-17T06:20:36.697Z,3.97
2019-01-17T06:23:03.449Z,3.60
2019-01-17T06:25:30.217Z,3.80
2019-01-17T06:27:56.973Z,4.80
2019-01-17T06:30:23.736Z,5.03
2019-01-17T06:32:50.487Z,5.13
2019-01-17T06:35:17.476Z,5.77
2019-01-17T06:37:44.204Z,4.43
2019-01-17T06:40:14.384Z,4.97
2019-01-17T06:42:41.156Z,5.20
2019-01-17T06:45:08.568Z,4.47
2019-01-17T06:47:35.390Z,5.67
2019-01-17T06:50:02.139Z,5.10
2019-01-17T06:52:28.878Z,5.20
2019-01-17T06:54:55.681Z,5.33
2019-01-17T06:57:22.510Z,5.80
2019-01-17T06:59:49.312Z,5.10
2019-01-17T07:02:16.068Z,5.13
2019-01-17T07:04:42.927Z,5.13
2019-01-17T07:07:09.727Z,4.70
2019-01-17T07:09:36.480Z,4.33
2019-01-17T07:12:03.305Z,4.57
2019-01-17T07:14:30.048Z,4.13
2019-01-17T07:16:56.831Z,4.23
2019-01-17T07:19:23.582Z,4.53
2019-01-17T07:21:50.352Z,5.30
2019-01-17T07:24:17.094Z,4.47
2019-01-17T07:26:43.841Z,5.10
2019-01-17T07:29:10.733Z,4.10
2019-01-17T07:31:37.592Z,4.60
2019-01-17T07:34:04.332Z,4.37
2019-01-17T07:36:31.084Z,4.53
2019-01-17T07:38:57.836Z,5.63
2019-01-17T07:41:24.593Z,5.33
2019-01-17T07:43:51.332Z,4.90
2019-01-17T07:46:18.096Z,4.47
2019-01-17T07:48:44.851Z,4.93
2019-01-17T07:51:11.616Z,4.40
2019-01-17T07:53:38.360Z,4.33
2019-01-17T07:56:05.116Z,4.13
2019-01-17T07:58:31.868Z,5.00
2019-01-17T08:00:58.628Z,6.20
2019-01-17T08:03:25.371Z,6.08
2019-01-17T08:05:52.129Z,5.10
2019-01-17T08:08:18.875Z,4.63
2019-01-17T08:10:45.619Z,5.13
2019-01-17T08:13:12.385Z,5.10
2019-01-17T08:15:39.147Z,7.03
2019-01-17T08:18:05.908Z,6.72
2019-01-17T08:20:32.649Z,6.00
2019-01-17T08:22:59.418Z,5.90
2019-01-17T08:25:26.152Z,5.43
2019-01-17T08:27:52.904Z,5.40
2019-01-17T08:30:22.032Z,5.07
2019-01-17T08:32:48.803Z,5.10
2019-01-17T08:35:15.592Z,5.20
2019-01-17T08:37:42.351Z,5.53
2019-01-17T08:40:20.239Z,4.80
2019-01-17T08:42:41.724Z,6.15
2019-01-17T08:45:08.507Z,5.17
2019-01-17T08:47:35.268Z,5.87
2019-01-17T08:50:02.128Z,5.75
2019-01-17T08:52:28.892Z,5.53
2019-01-17T08:54:55.632Z,5.00
2019-01-17T08:57:22.412Z,4.80
2019-01-17T08:59:49.152Z,4.30
2019-01-17T09:02:15.936Z,5.00
2019-01-17T09:04:42.693Z,5.20
2019-01-17T09:07:09.478Z,5.00
2019-01-17T09:09:36.215Z,4.90
2019-01-17T09:12:03.164Z,5.20
2019-01-17T09:14:29.891Z,5.55
2019-01-17T09:16:56.660Z,5.20
2019-01-17T09:19:23.412Z,4.43
2019-01-17T09:21:50.184Z,4.87
2019-01-17T09:24:16.925Z,4.60
2019-01-17T09:26:43.671Z,4.50
2019-01-17T09:29:10.437Z,5.10
2019-01-17T09:31:37.175Z,5.60
2019-01-17T09:34:04.149Z,5.65
2019-01-17T09:36:30.953Z,5.80
2019-01-17T09:38:57.768Z,5.40
2019-01-17T09:41:24.524Z,5.30
2019-01-17T09:43:51.280Z,4.43
2019-01-17T09:46:18.041Z,5.17
2019-01-17T09:48:44.799Z,5.73
2019-01-17T09:51:11.544Z,4.80
2019-01-17T09:53:38.328Z,4.97
2019-01-17T09:56:05.092Z,3.40
2019-01-17T09:58:31.899Z,2.77
2019-01-17T10:00:58.680Z,2.40
2019-01-17T10:03:25.447Z,1.47
2019-01-17T10:05:52.196Z,1.57
2019-01-17T10:08:18.974Z,1.40
2019-01-17T10:10:45.752Z,1.23
2019-01-17T10:13:13.161Z,0.80
2019-01-17T10:16:22.164Z,0.87
2019-01-17T10:19:05.101Z,0.87
2019-01-17T10:22:03.821Z,0.90
2019-01-17T10:24:43.336Z,0.90
2019-01-17T10:27:32.813Z,0.87
2019-01-17T10:30:30.896Z,0.90
2019-01-17T10:33:20.326Z,0.70
2019-01-17T10:35:59.572Z,0.80
2019-01-17T10:38:39.440Z,0.63
2019-01-17T10:41:20.696Z,1.10
2019-01-17T10:43:58.920Z,0.70
2019-01-17T10:46:58.821Z,0.80
2019-01-17T10:49:39.851Z,0.73
2019-01-17T10:52:21.649Z,0.70
2019-01-17T10:55:10.675Z,0.80
2019-01-17T10:58:02.726Z,0.67
2019-01-17T11:00:40.863Z,0.63
2019-01-17T11:03:26.492Z,0.60
2019-01-17T11:06:18.836Z,0.80
2019-01-17T11:09:05.380Z,0.63
2019-01-17T11:12:00.316Z,0.70
2019-01-17T11:14:39.428Z,0.90
2019-01-17T11:17:52.197Z,0.77
2019-01-17T11:20:44.576Z,0.80
2019-01-17T11:23:23.265Z,0.73
2019-01-17T11:25:59.598Z,0.93
2019-01-17T11:28:38.748Z,0.90
2019-01-17T11:31:27.756Z,0.90
2019-01-17T11:34:04.792Z,0.90
2019-01-17T11:37:12.260Z,0.80
2019-01-17T11:39:50.905Z,0.90
2019-01-17T11:42:33.084Z,0.97
2019-01-17T11:45:31.587Z,0.80
2019-01-17T11:48:08.005Z,0.80
2019-01-17T11:51:03.014Z,0.93
2019-01-17T11:53:37.556Z,1.20
2019-01-17T11:56:21.013Z,0.80
2019-01-17T11:59:11.057Z,1.07
2019-01-17T12:01:50.217Z,0.80
2019-01-17T12:04:30.996Z,0.93
2019-01-17T12:06:59.221Z,0.90
2019-01-17T12:09:25.979Z,1.30
2019-01-17T12:11:52.737Z,0.90
2019-01-17T12:14:19.506Z,0.80
2019-01-17T12:16:46.246Z,1.20
2019-01-17T12:19:13.004Z,0.77
2019-01-17T12:21:39.784Z,1.10
2019-01-17T12:24:06.529Z,1.10
2019-01-17T12:26:33.345Z,0.87
2019-01-17T12:29:00.179Z,1.03
2019-01-17T12:31:26.897Z,0.90
2019-01-17T12:33:53.735Z,1.03
2019-01-17T12:36:20.503Z,1.10
2019-01-17T12:38:47.252Z,0.87
2019-01-17T12:41:14.159Z,0.70
2019-01-17T12:43:40.900Z,0.90
2019-01-17T12:46:07.665Z,1.20
2019-01-17T12:48:34.396Z,1.10
2019-01-17T12:51:01.169Z,0.73
2019-01-17T12:53:27.929Z,0.80
2019-01-17T12:55:54.708Z,1.20
2019-01-17T12:58:21.455Z,0.90
2019-01-17T13:00:48.214Z,1.10
2019-01-17T13:03:14.965Z,1.10
2019-01-17T13:05:41.753Z,1.00
2019-01-17T13:08:08.497Z,0.97
2019-01-17T13:10:35.260Z,1.10
2019-01-17T13:13:02.013Z,0.80
2019-01-17T13:15:28.772Z,1.60
2019-01-17T13:17:55.545Z,0.90
2019-01-17T13:20:22.309Z,0.80
2019-01-17T13:22:49.044Z,1.00
2019-01-17T13:25:17.920Z,0.87
2019-01-17T13:27:44.663Z,1.10
2019-01-17T13:30:14.156Z,1.13
2019-01-17T13:32:40.928Z,1.20
2019-01-17T13:35:07.884Z,1.00
2019-01-17T13:37:34.648Z,0.87
2019-01-17T13:40:01.583Z,0.70
2019-01-17T13:42:28.332Z,1.00
2019-01-17T13:44:55.072Z,1.03
2019-01-17T13:47:21.836Z,0.80
2019-01-17T13:49:48.618Z,1.20
2019-01-17T13:52:15.407Z,0.85
2019-01-17T13:54:42.144Z,1.07
2019-01-17T13:57:08.893Z,1.10
2019-01-17T13:59:35.778Z,0.80
2019-01-17T14:02:02.428Z,1.00
2019-01-17T14:04:29.168Z,0.93
2019-01-17T14:06:55.932Z,0.80
2019-01-17T14:09:22.684Z,0.90
2019-01-17T14:11:49.457Z,1.77
2019-01-17T14:14:16.192Z,1.22
2019-01-17T14:16:42.956Z,1.00
2019-01-17T14:19:09.696Z,1.10
2019-01-17T14:21:36.459Z,1.40
2019-01-17T14:24:04.283Z,1.93
2019-01-17T14:26:31.044Z,2.43
2019-01-17T14:28:57.784Z,1.07
2019-01-17T14:31:24.562Z,1.00
2019-01-17T14:33:51.325Z,0.90
2019-01-17T14:36:18.075Z,1.10
2019-01-17T14:38:45.447Z,1.00
2019-01-17T14:41:11.572Z,1.10
2019-01-17T14:43:38.316Z,0.80
2019-01-17T14:46:05.188Z,1.23
2019-01-17T14:48:32.009Z,0.80
2019-01-17T14:50:58.797Z,0.80
2019-01-17T14:53:25.540Z,0.83
2019-01-17T14:55:52.309Z,0.80
2019-01-17T14:58:19.045Z,0.60
2019-01-17T15:00:45.815Z,0.70
2019-01-17T15:03:12.566Z,0.70
2019-01-17T15:05:39.396Z,0.97
2019-01-17T15:08:06.168Z,0.80
2019-01-17T15:10:36.729Z,0.80
2019-01-17T15:13:03.708Z,0.70
2019-01-17T15:15:30.464Z,0.90
2019-01-17T15:17:57.227Z,0.90
2019-01-17T15:20:23.964Z,1.13
2019-01-17T15:22:51.044Z,1.00
2019-01-17T15:25:17.782Z,1.20
2019-01-17T15:27:44.568Z,1.20
2019-01-17T15:30:14.308Z,1.13
2019-01-17T15:32:41.076Z,1.00
2019-01-17T15:35:07.817Z,1.20
2019-01-17T15:37:34.605Z,0.90
2019-01-17T15:40:01.423Z,1.10
2019-01-17T15:42:28.291Z,1.20
2019-01-17T15:44:55.293Z,1.63
2019-01-17T15:47:22.246Z,1.03
2019-01-17T15:49:49.018Z,0.70
2019-01-17T15:52:15.832Z,1.10
2019-01-17T15:54:47.662Z,1.33
2019-01-17T15:57:14.418Z,0.60
2019-01-17T15:59:41.239Z,0.90
2019-01-17T16:02:08.042Z,1.30
2019-01-17T16:04:34.914Z,0.90
2019-01-17T16:07:01.702Z,0.90
2019-01-17T16:09:28.481Z,1.13
2019-01-17T16:11:55.283Z,1.07
2019-01-17T16:14:23.791Z,0.80
2019-01-17T16:16:49.912Z,1.33
2019-01-17T16:19:16.848Z,0.77
2019-01-17T16:21:46.456Z,0.70
2019-01-17T16:24:13.198Z,0.90
2019-01-17T16:26:40.025Z,0.50
2019-01-17T16:29:06.820Z,0.60
2019-01-17T16:31:33.648Z,0.80
2019-01-17T16:34:00.416Z,0.70
2019-01-17T16:36:27.194Z,0.70
2019-01-17T16:38:55.136Z,1.10
2019-01-17T16:41:21.889Z,0.70
2019-01-17T16:43:48.709Z,0.60
2019-01-17T16:46:15.498Z,0.90
2019-01-17T16:48:42.306Z,0.80
2019-01-17T16:51:09.099Z,0.80
2019-01-17T16:53:36.995Z,0.90
2019-01-17T16:56:03.789Z,0.90
2019-01-17T16:58:30.625Z,1.10
2019-01-17T17:00:57.423Z,1.10
2019-01-17T17:03:24.247Z,0.97
2019-01-17T17:05:51.022Z,0.93
2019-01-17T17:08:17.825Z,1.00
2019-01-17T17:10:44.626Z,1.30
2019-01-17T17:13:11.418Z,1.10
2019-01-17T17:15:38.209Z,0.90
2019-01-17T17:18:05.016Z,1.07
2019-01-17T17:20:33.159Z,1.23
2019-01-17T17:22:59.808Z,0.90
2019-01-17T17:25:26.613Z,1.07
2019-01-17T17:27:55.730Z,1.00
2019-01-17T17:30:22.470Z,1.03
2019-01-17T17:32:49.275Z,1.07
2019-01-17T17:35:16.464Z,1.00
2019-01-17T17:37:43.266Z,1.13
2019-01-17T17:40:17.171Z,1.40
2019-01-17T17:42:44.037Z,1.50
2019-01-17T17:45:10.945Z,1.50
2019-01-17T17:47:38.590Z,1.30
2019-01-17T17:50:06.748Z,1.40
2019-01-17T17:52:33.571Z,1.20
2019-01-17T17:55:00.561Z,1.43
2019-01-17T17:57:27.392Z,1.87
2019-01-17T17:59:54.274Z,1.50
2019-01-17T18:02:27.519Z,1.30
2019-01-17T18:04:56.474Z,1.73
2019-01-17T18:07:23.289Z,1.60
2019-01-17T18:09:50.094Z,1.73
2019-01-17T18:12:16.882Z,1.80
2019-01-17T18:14:43.686Z,2.63
2019-01-17T18:17:10.703Z,2.00
2019-01-17T18:19:37.850Z,2.20
2019-01-17T18:22:04.681Z,2.00
2019-01-17T18:24:31.877Z,2.00
2019-01-17T18:26:58.709Z,1.87
2019-01-17T18:29:25.536Z,2.37
2019-01-17T18:31:52.341Z,2.47
2019-01-17T18:34:19.490Z,3.00
2019-01-17T18:36:47.392Z,2.90
2019-01-17T18:39:14.167Z,2.27
2019-01-17T18:41:40.948Z,3.10
2019-01-17T18:44:09.831Z,2.30
2019-01-17T18:46:36.649Z,2.43
2019-01-17T18:49:03.943Z,2.07
2019-01-17T18:51:30.728Z,2.30
2019-01-17T18:53:57.534Z,2.40
2019-01-17T18:56:24.323Z,2.60
2019-01-17T18:58:51.098Z,2.22
2019-01-17T19:01:17.892Z,1.80
2019-01-17T19:03:44.736Z,1.20
2019-01-17T19:06:11.517Z,1.27
2019-01-17T19:08:38.308Z,1.10
2019-01-17T19:11:05.187Z,0.87
2019-01-17T19:13:32.701Z,1.00
2019-01-17T19:15:59.594Z,1.23
2019-01-17T19:18:26.481Z,0.93
2019-01-17T19:20:53.333Z,1.20
2019-01-17T19:23:20.121Z,1.23
2019-01-17T19:25:46.918Z,1.10
2019-01-17T19:28:13.694Z,1.40
2019-01-17T19:30:41.335Z,1.60
2019-01-17T19:33:08.088Z,1.40
2019-01-17T19:35:34.932Z,1.60
2019-01-17T19:38:01.711Z,1.60
2019-01-17T19:40:29.012Z,1.47
2019-01-17T19:42:55.818Z,1.23
2019-01-17T19:45:22.625Z,1.40
2019-01-17T19:47:49.445Z,1.70
2019-01-17T19:50:19.980Z,2.07
2019-01-17T19:52:46.773Z,1.90
2019-01-17T19:55:15.128Z,1.60
2019-01-17T19:57:42.196Z,1.87
2019-01-17T20:00:10.681Z,1.80
2019-01-17T20:02:37.558Z,2.13
2019-01-17T20:05:05.260Z,1.70
2019-01-17T20:07:32.041Z,1.70
2019-01-17T20:09:58.822Z,1.80
2019-01-17T20:12:25.718Z,1.52
2019-01-17T20:14:52.481Z,1.60
2019-01-17T20:17:19.284Z,1.53
2019-01-17T20:19:46.050Z,1.73
2019-01-17T20:22:13.181Z,1.70
2019-01-17T20:24:42.410Z,2.10
2019-01-17T20:27:09.245Z,1.70
2019-01-17T20:29:36.009Z,1.90
2019-01-17T20:32:02.805Z,1.70
2019-01-17T20:34:29.656Z,1.70
2019-01-17T20:36:57.508Z,2.00
2019-01-17T20:39:24.258Z,2.00
2019-01-17T20:41:51.057Z,2.03
2019-01-17T20:44:17.904Z,2.03
2019-01-17T20:46:44.730Z,2.22
2019-01-17T20:49:11.513Z,2.30
2019-01-17T20:51:38.333Z,5.40
2019-01-17T20:54:05.157Z,2.23
2019-01-17T20:56:31.980Z,3.15
2019-01-17T20:58:58.762Z,5.93
2019-01-17T21:01:42.278Z,2.17
2019-01-17T21:04:09.061Z,2.40
2019-01-17T21:06:35.848Z,2.20
2019-01-17T21:09:02.645Z,2.40
2019-01-17T21:11:29.437Z,2.40
2019-01-17T21:13:58.199Z,2.57
2019-01-17T21:16:25.185Z,2.20
2019-01-17T21:18:52.002Z,2.80
2019-01-17T21:21:18.816Z,2.30
2019-01-17T21:23:45.601Z,2.30
2019-01-17T21:26:13.118Z,2.47
2019-01-17T21:28:41.008Z,2.30
2019-01-17T21:31:07.844Z,2.50
2019-01-17T21:33:37.084Z,2.53
2019-01-17T21:36:03.893Z,5.00
2019-01-17T21:38:30.677Z,2.50
2019-01-17T21:40:57.501Z,2.67
2019-01-17T21:43:24.324Z,2.33
2019-01-17T21:45:51.424Z,2.50
2019-01-17T21:48:18.441Z,2.30
2019-01-17T21:50:45.264Z,2.50
2019-01-17T21:53:12.064Z,2.40
2019-01-17T21:55:38.829Z,2.58
2019-01-17T21:58:05.767Z,2.50
2019-01-17T22:00:32.526Z,3.40
2019-01-17T22:02:59.646Z,3.60
2019-01-17T22:05:26.421Z,2.90
2019-01-17T22:07:53.201Z,2.83
2019-01-17T22:10:20.261Z,3.40
2019-01-17T22:12:47.072Z,3.03
2019-01-17T22:15:16.213Z,3.80
2019-01-17T22:17:42.998Z,3.33
2019-01-17T22:20:09.768Z,2.60
2019-01-17T22:22:36.562Z,3.20
2019-01-17T22:25:04.058Z,3.13
2019-01-17T22:27:30.841Z,3.90
2019-01-17T22:29:57.631Z,2.97
2019-01-17T22:32:24.428Z,3.50
2019-01-17T22:34:51.229Z,3.17
2019-01-17T22:37:18.039Z,2.80
2019-01-17T22:39:44.792Z,3.00
2019-01-17T22:42:11.589Z,2.33
2019-01-17T22:44:38.381Z,2.50
2019-01-17T22:47:05.205Z,2.67
2019-01-17T22:49:31.974Z,2.63
2019-01-17T22:51:58.769Z,2.50
2019-01-17T22:54:25.553Z,2.40
2019-01-17T22:56:52.343Z,2.52
2019-01-17T22:59:19.206Z,2.60
2019-01-17T23:01:45.997Z,2.13
2019-01-17T23:04:12.789Z,2.40
2019-01-17T23:06:40.075Z,2.50
2019-01-17T23:09:07.402Z,2.33
2019-01-17T23:11:34.624Z,2.50
2019-01-17T23:14:01.423Z,3.30
2019-01-17T23:16:28.189Z,3.23
2019-01-17T23:18:55.140Z,4.13
2019-01-17T23:21:21.892Z,2.97
2019-01-17T23:23:48.688Z,3.83
2019-01-17T23:26:15.484Z,3.20
2019-01-17T23:28:42.300Z,3.30
2019-01-17T23:31:09.072Z,3.00
2019-01-17T23:33:35.875Z,3.50
2019-01-17T23:36:02.773Z,3.12
2019-01-17T23:38:29.621Z,3.27
2019-01-17T23:40:56.404Z,2.90
2019-01-17T23:43:23.157Z,3.50
2019-01-17T23:45:50.056Z,3.97
2019-01-17T23:48:17.068Z,3.42
2019-01-17T23:50:43.837Z,3.40
2019-01-17T23:53:10.629Z,3.63
2019-01-17T23:55:37.384Z,4.12
2019-01-17T23:58:04.172Z,3.58
